Time;durP1;ratioP1;P1;durP2;ratioP2;P2;SDS_P1;SDS_P2;PMS_P1;PMS_P2;Temp;Humidity;BMP_temperature;BMP_pressure;BME280_temperature;BME280_humidity;BME280_pressure;Samples;Min_cycle;Max_cycle;Signal;HPM_P1;HPM_P2
2021/01/16 00:02:19;;;;;;;29.58;27.25;;;;;;;;;;5021921;28;20196;-78
2021/01/16 00:04:45;;;;;;;30.27;27.73;;;;;;;;;;5027070;28;20189;-78
2021/01/16 00:07:14;;;;;;;29.45;27.15;;;;;;;;;;5021575;28;20197;-79
2021/01/16 00:09:41;;;;;;;30.35;27.98;;;;;;;;;;5016553;28;20194;-78
2021/01/16 00:12:08;;;;;;;30.38;27.80;;;;;;;;;;5016593;28;20193;-78
2021/01/16 00:14:35;;;;;;;31.02;28.60;;;;;;;;;;5016292;28;20244;-78
2021/01/16 00:17:02;;;;;;;30.48;27.88;;;;;;;;;;5016342;28;20270;-78
2021/01/16 00:19:29;;;;;;;29.77;27.38;;;;;;;;;;5016386;28;20647;-77
2021/01/16 00:21:55;;;;;;;29.90;27.30;;;;;;;;;;5016016;28;20193;-79
2021/01/16 00:24:23;;;;;;;30.35;28.05;;;;;;;;;;5016061;28;20192;-77
2021/01/16 00:26:50;;;;;;;28.50;26.50;;;;;;;;;;5016662;28;20190;-78
2021/01/16 00:29:17;;;;;;;29.88;27.50;;;;;;;;;;5016243;28;20193;-78
2021/01/16 00:31:44;;;;;;;30.15;27.83;;;;;;;;;;5016523;28;20189;-78
2021/01/16 00:34:10;;;;;;;30.92;28.58;;;;;;;;;;5016047;28;20665;-78
2021/01/16 00:36:37;;;;;;;30.85;28.40;;;;;;;;;;5016048;28;20217;-77
2021/01/16 00:39:04;;;;;;;29.58;27.27;;;;;;;;;;5016352;28;20190;-80
2021/01/16 00:41:32;;;;;;;28.92;26.63;;;;;;;;;;5016647;28;20201;-83
2021/01/16 00:43:59;;;;;;;29.60;27.40;;;;;;;;;;5014868;28;20217;-78
2021/01/16 00:46:26;;;;;;;29.40;27.10;;;;;;;;;;5016154;28;20272;-78
2021/01/16 00:48:53;;;;;;;29.45;27.15;;;;;;;;;;5016005;28;20217;-78
2021/01/16 00:51:20;;;;;;;30.00;27.67;;;;;;;;;;4998588;28;20228;-77
2021/01/16 00:53:47;;;;;;;29.38;27.08;;;;;;;;;;5015672;28;20194;-77
2021/01/16 00:56:14;;;;;;;31.45;28.77;;;;;;;;;;4998451;28;20225;-79
2021/01/16 00:58:42;;;;;;;29.70;27.48;;;;;;;;;;5015865;28;20224;-77
2021/01/16 01:01:09;;;;;;;29.75;27.27;;;;;;;;;;5015799;28;20201;-78
2021/01/16 01:03:36;;;;;;;29.55;27.20;;;;;;;;;;5015717;28;20206;-76
2021/01/16 01:06:03;;;;;;;30.05;27.80;;;;;;;;;;5015317;28;20236;-78
2021/01/16 01:08:30;;;;;;;29.13;26.95;;;;;;;;;;5015812;28;20189;-77
2021/01/16 01:10:57;;;;;;;29.52;27.10;;;;;;;;;;5015632;28;20197;-78
2021/01/16 01:13:24;;;;;;;29.75;27.35;;;;;;;;;;5015606;28;20552;-77
2021/01/16 01:15:52;;;;;;;31.67;28.90;;;;;;;;;;5015086;28;20229;-77
2021/01/16 01:18:19;;;;;;;29.55;27.25;;;;;;;;;;5015202;28;20197;-78
2021/01/16 01:20:45;;;;;;;28.50;26.38;;;;;;;;;;5015561;28;20194;-77
2021/01/16 01:23:12;;;;;;;30.33;27.90;;;;;;;;;;5015160;28;20197;-78
2021/01/16 01:25:39;;;;;;;29.13;26.92;;;;;;;;;;5015638;28;20200;-77
2021/01/16 01:28:06;;;;;;;29.25;27.05;;;;;;;;;;5015408;28;20186;-78
2021/01/16 01:30:33;;;;;;;29.08;26.92;;;;;;;;;;5015399;28;20198;-78
2021/01/16 01:33:01;;;;;;;31.25;28.83;;;;;;;;;;5014965;28;20244;-79
2021/01/16 01:35:28;;;;;;;31.00;28.42;;;;;;;;;;5015325;28;20585;-78
2021/01/16 01:37:56;;;;;;;29.15;26.52;;;;;;;;;;5015437;28;20550;-77
2021/01/16 01:40:23;;;;;;;28.75;26.60;;;;;;;;;;5014879;28;20212;-78
2021/01/16 01:42:51;;;;;;;30.75;28.30;;;;;;;;;;5014943;28;20193;-78
2021/01/16 01:45:18;;;;;;;29.52;27.17;;;;;;;;;;5014880;28;20201;-78
2021/01/16 01:47:46;;;;;;;31.02;28.30;;;;;;;;;;5015011;28;20194;-77
2021/01/16 01:50:15;;;;;;;30.33;27.77;;;;;;;;;;5014736;28;20201;-78
2021/01/16 01:52:42;;;;;;;29.48;27.27;;;;;;;;;;4997297;28;20213;-77
2021/01/16 01:55:10;;;;;;;30.10;27.70;;;;;;;;;;5014698;28;20205;-78
2021/01/16 01:57:38;;;;;;;29.05;26.85;;;;;;;;;;5014459;28;20229;-78
2021/01/16 02:00:06;;;;;;;30.73;28.33;;;;;;;;;;5014532;28;20596;-78
2021/01/16 02:02:33;;;;;;;30.88;28.60;;;;;;;;;;5014553;28;20190;-77
2021/01/16 02:05:02;;;;;;;30.77;28.17;;;;;;;;;;5014417;28;20240;-77
2021/01/16 02:07:37;;;;;;;31.55;28.77;;;;;;;;;;5014740;28;20194;-78
2021/01/16 02:10:06;;;;;;;29.88;27.58;;;;;;;;;;5014745;28;20185;-78
2021/01/16 02:12:33;;;;;;;28.70;26.50;;;;;;;;;;5014455;28;20236;-78
2021/01/16 02:15:07;;;;;;;31.02;28.75;;;;;;;;;;5013926;28;20241;-76
2021/01/16 02:17:37;;;;;;;29.92;27.02;;;;;;;;;;5014263;28;20225;-78
2021/01/16 02:20:08;;;;;;;30.08;27.77;;;;;;;;;;5014474;28;20197;-77
2021/01/16 02:22:42;;;;;;;29.98;27.48;;;;;;;;;;5014328;28;20240;-78
2021/01/16 02:25:12;;;;;;;29.42;27.13;;;;;;;;;;5014158;28;20643;-78
2021/01/16 02:27:47;;;;;;;31.20;28.58;;;;;;;;;;5014067;28;20220;-77
2021/01/16 02:30:14;;;;;;;29.95;27.25;;;;;;;;;;5014394;28;20263;-78
2021/01/16 02:32:43;;;;;;;30.80;28.30;;;;;;;;;;5014304;28;20190;-78
2021/01/16 02:35:12;;;;;;;29.25;26.95;;;;;;;;;;5014319;28;20193;-78
2021/01/16 02:37:42;;;;;;;29.33;27.02;;;;;;;;;;4996334;28;20271;-78
2021/01/16 02:40:14;;;;;;;30.25;27.95;;;;;;;;;;5014236;28;20644;-78
2021/01/16 02:42:52;;;;;;;30.80;28.35;;;;;;;;;;5013819;28;20193;-77
2021/01/16 02:45:21;;;;;;;30.23;27.83;;;;;;;;;;5014184;28;20595;-78
2021/01/16 02:47:57;;;;;;;29.15;26.75;;;;;;;;;;5014119;28;20193;-78
2021/01/16 02:50:24;;;;;;;30.05;27.65;;;;;;;;;;5013611;28;20618;-78
2021/01/16 02:52:51;;;;;;;30.10;27.75;;;;;;;;;;5014643;28;20189;-78
2021/01/16 02:55:18;;;;;;;31.33;28.63;;;;;;;;;;5014055;28;20189;-78
2021/01/16 02:57:45;;;;;;;31.45;28.75;;;;;;;;;;5013544;28;20714;-78
2021/01/16 03:00:14;;;;;;;29.85;27.35;;;;;;;;;;5013514;28;20544;-77
2021/01/16 03:02:41;;;;;;;32.25;29.80;;;;;;;;;;5013628;28;20559;-77
2021/01/16 03:05:08;;;;;;;29.55;27.05;;;;;;;;;;5013641;28;20554;-78
2021/01/16 03:07:35;;;;;;;28.77;26.63;;;;;;;;;;5015597;28;20190;-77
2021/01/16 03:10:04;;;;;;;29.55;27.05;;;;;;;;;;5018069;28;20201;-78
2021/01/16 03:12:31;;;;;;;30.50;28.10;;;;;;;;;;5017984;28;20189;-77
2021/01/16 03:14:59;;;;;;;29.67;27.38;;;;;;;;;;5017461;28;20229;-77
2021/01/16 03:17:36;;;;;;;30.08;27.67;;;;;;;;;;5017586;28;20222;-77
2021/01/16 03:20:04;;;;;;;30.02;27.08;;;;;;;;;;5017891;28;20551;-77
2021/01/16 03:22:30;;;;;;;30.90;28.50;;;;;;;;;;5017746;28;20547;-78
2021/01/16 03:24:58;;;;;;;28.95;26.85;;;;;;;;;;5017655;28;20224;-78
2021/01/16 03:27:25;;;;;;;29.27;26.98;;;;;;;;;;5017378;28;20193;-79
2021/01/16 03:29:52;;;;;;;28.33;25.98;;;;;;;;;;5017624;28;20190;-78
2021/01/16 03:32:20;;;;;;;30.30;27.88;;;;;;;;;;5017275;28;20259;-78
2021/01/16 03:34:48;;;;;;;31.25;28.40;;;;;;;;;;5017262;28;20543;-78
2021/01/16 03:37:16;;;;;;;29.67;27.35;;;;;;;;;;5017945;28;20233;-78
2021/01/16 03:39:42;;;;;;;28.65;26.35;;;;;;;;;;5017163;28;20190;-78
2021/01/16 03:42:10;;;;;;;29.33;26.92;;;;;;;;;;5016866;28;20625;-79
2021/01/16 03:44:37;;;;;;;31.13;28.63;;;;;;;;;;5016960;28;20190;-78
2021/01/16 03:47:05;;;;;;;31.30;28.50;;;;;;;;;;5017242;28;20190;-78
2021/01/16 03:49:32;;;;;;;30.40;27.80;;;;;;;;;;5017292;28;20553;-78
2021/01/16 03:52:00;;;;;;;30.05;27.58;;;;;;;;;;5016936;28;20190;-78
2021/01/16 03:54:27;;;;;;;29.85;27.25;;;;;;;;;;5016893;28;20200;-78
2021/01/16 03:56:54;;;;;;;29.60;27.23;;;;;;;;;;5017480;28;20237;-78
2021/01/16 03:59:20;;;;;;;31.58;28.98;;;;;;;;;;5016753;28;20226;-79
2021/01/16 04:01:48;;;;;;;30.08;27.77;;;;;;;;;;5017106;28;20186;-78
2021/01/16 04:04:14;;;;;;;30.67;28.20;;;;;;;;;;5016994;28;20524;-78
2021/01/16 04:06:41;;;;;;;31.15;28.63;;;;;;;;;;5017015;28;20209;-78
2021/01/16 04:09:09;;;;;;;30.33;27.92;;;;;;;;;;5016910;28;20239;-77
2021/01/16 04:11:36;;;;;;;30.63;28.20;;;;;;;;;;5016855;28;20198;-78
2021/01/16 04:14:03;;;;;;;30.45;28.02;;;;;;;;;;5016112;28;20640;-78
2021/01/16 04:16:30;;;;;;;32.00;29.50;;;;;;;;;;5016579;28;20705;-78
2021/01/16 04:18:57;;;;;;;31.45;28.85;;;;;;;;;;5016623;28;20193;-78
2021/01/16 04:21:25;;;;;;;31.60;29.17;;;;;;;;;;5016395;28;20201;-78
2021/01/16 04:23:52;;;;;;;31.45;28.85;;;;;;;;;;5016885;28;20208;-78
2021/01/16 04:26:20;;;;;;;30.10;27.70;;;;;;;;;;5016644;28;20198;-78
2021/01/16 04:28:47;;;;;;;30.83;28.40;;;;;;;;;;5016275;28;20201;-78
2021/01/16 04:31:13;;;;;;;31.35;28.95;;;;;;;;;;5016247;28;20193;-79
2021/01/16 04:33:41;;;;;;;33.67;30.70;;;;;;;;;;4998747;28;20194;-78
2021/01/16 04:36:08;;;;;;;31.40;28.70;;;;;;;;;;5016077;28;20201;-78
2021/01/16 04:38:37;;;;;;;30.38;28.05;;;;;;;;;;5016272;28;20201;-79
2021/01/16 04:41:04;;;;;;;31.30;28.60;;;;;;;;;;5016298;28;20288;-78
2021/01/16 04:43:31;;;;;;;30.85;28.30;;;;;;;;;;5016137;28;20198;-79
2021/01/16 04:46:03;;;;;;;31.10;28.40;;;;;;;;;;5015997;28;20531;-78
2021/01/16 04:48:30;;;;;;;31.15;28.83;;;;;;;;;;5016256;28;20201;-78
2021/01/16 04:51:00;;;;;;;32.85;30.13;;;;;;;;;;5016180;28;20565;-78
2021/01/16 04:53:32;;;;;;;32.17;29.30;;;;;;;;;;5015736;28;20193;-78
2021/01/16 04:56:00;;;;;;;32.22;29.40;;;;;;;;;;5015768;28;20192;-78
2021/01/16 04:58:26;;;;;;;32.78;29.95;;;;;;;;;;5016391;28;20225;-78
2021/01/16 05:00:56;;;;;;;32.88;30.15;;;;;;;;;;5015655;28;20201;-78
2021/01/16 05:03:24;;;;;;;32.30;29.55;;;;;;;;;;5016390;28;20221;-78
2021/01/16 05:05:51;;;;;;;32.55;29.85;;;;;;;;;;5015841;28;20193;-78
2021/01/16 05:08:20;;;;;;;34.15;31.20;;;;;;;;;;5015815;28;20205;-77
2021/01/16 05:10:50;;;;;;;34.65;31.83;;;;;;;;;;5015424;28;20200;-78
2021/01/16 05:13:17;;;;;;;32.15;29.45;;;;;;;;;;5015337;28;20693;-78
2021/01/16 05:15:45;;;;;;;32.83;30.05;;;;;;;;;;5015261;28;20233;-78
2021/01/16 05:18:14;;;;;;;33.75;30.85;;;;;;;;;;5015363;28;20214;-78
2021/01/16 05:20:41;;;;;;;33.30;30.70;;;;;;;;;;5015625;28;20197;-78
2021/01/16 05:23:15;;;;;;;33.72;30.85;;;;;;;;;;5015395;28;20193;-78
2021/01/16 05:25:48;;;;;;;33.08;30.38;;;;;;;;;;5015207;28;20297;-80
2021/01/16 05:28:16;;;;;;;32.13;29.55;;;;;;;;;;5015174;28;20193;-78
2021/01/16 05:30:51;;;;;;;30.40;28.00;;;;;;;;;;5014916;28;20191;-78
2021/01/16 05:33:19;;;;;;;31.70;29.10;;;;;;;;;;5015033;28;20217;-78
2021/01/16 05:35:46;;;;;;;30.67;28.23;;;;;;;;;;5015052;28;20196;-78
2021/01/16 05:38:15;;;;;;;32.72;29.75;;;;;;;;;;5015113;28;20244;-78
2021/01/16 05:40:42;;;;;;;33.25;30.58;;;;;;;;;;5014964;28;20190;-78
2021/01/16 05:43:09;;;;;;;33.90;31.08;;;;;;;;;;5014831;28;20206;-78
2021/01/16 05:45:36;;;;;;;32.50;29.60;;;;;;;;;;5015194;28;20547;-78
2021/01/16 05:48:04;;;;;;;32.65;29.95;;;;;;;;;;5014784;28;20193;-78
2021/01/16 05:50:34;;;;;;;32.92;30.17;;;;;;;;;;5014727;28;20648;-78
2021/01/16 05:53:01;;;;;;;31.77;29.08;;;;;;;;;;5014951;28;20186;-78
2021/01/16 05:55:32;;;;;;;32.17;29.27;;;;;;;;;;5014673;28;20197;-77
2021/01/16 05:58:04;;;;;;;31.40;28.80;;;;;;;;;;5014519;28;20226;-78
2021/01/16 06:00:34;;;;;;;32.53;29.70;;;;;;;;;;5014841;28;20522;-78
2021/01/16 06:03:02;;;;;;;34.15;31.17;;;;;;;;;;5014732;28;20240;-78
2021/01/16 06:05:29;;;;;;;33.58;30.58;;;;;;;;;;5014480;28;20194;-77
2021/01/16 06:07:57;;;;;;;33.25;30.35;;;;;;;;;;5014837;28;20202;-78
2021/01/16 06:10:24;;;;;;;32.35;29.63;;;;;;;;;;5015536;28;20193;-78
2021/01/16 06:12:52;;;;;;;32.47;30.00;;;;;;;;;;5014494;28;20186;-78
2021/01/16 06:15:19;;;;;;;30.67;28.20;;;;;;;;;;5014268;28;20311;-78
2021/01/16 06:17:47;;;;;;;31.67;29.05;;;;;;;;;;5014649;28;20260;-78
2021/01/16 06:20:14;;;;;;;32.35;29.65;;;;;;;;;;5014368;28;20240;-78
2021/01/16 06:22:44;;;;;;;31.52;28.92;;;;;;;;;;5014537;28;20563;-78
2021/01/16 06:25:18;;;;;;;33.30;30.60;;;;;;;;;;5014463;28;20200;-78
2021/01/16 06:27:46;;;;;;;33.25;30.45;;;;;;;;;;5014436;28;20247;-78
2021/01/16 06:30:15;;;;;;;32.60;29.85;;;;;;;;;;5014114;28;20205;-78
2021/01/16 06:32:49;;;;;;;32.97;30.27;;;;;;;;;;5014196;28;20197;-79
2021/01/16 06:35:16;;;;;;;31.98;29.25;;;;;;;;;;5014104;28;20205;-78
2021/01/16 06:37:44;;;;;;;32.20;29.50;;;;;;;;;;5014210;28;20226;-78
2021/01/16 06:40:12;;;;;;;32.38;29.25;;;;;;;;;;5014305;28;20189;-78
2021/01/16 06:42:40;;;;;;;32.33;29.50;;;;;;;;;;5013317;28;20194;-78
2021/01/16 06:45:07;;;;;;;32.45;29.70;;;;;;;;;;5013779;28;20193;-78
2021/01/16 06:47:35;;;;;;;31.38;28.67;;;;;;;;;;5014139;28;20186;-78
2021/01/16 06:50:02;;;;;;;32.80;30.00;;;;;;;;;;5013795;28;20186;-78
2021/01/16 06:52:33;;;;;;;32.42;29.92;;;;;;;;;;5014090;28;20292;-78
2021/01/16 06:55:03;;;;;;;31.30;28.70;;;;;;;;;;5013882;28;20206;-78
2021/01/16 06:57:31;;;;;;;31.30;28.85;;;;;;;;;;5013636;28;20770;-78
2021/01/16 07:00:00;;;;;;;33.03;30.17;;;;;;;;;;5014796;28;20262;-78
2021/01/16 07:02:30;;;;;;;32.38;29.67;;;;;;;;;;5013640;28;20694;-78
2021/01/16 07:05:00;;;;;;;33.00;30.20;;;;;;;;;;5013990;28;20200;-77
2021/01/16 07:07:36;;;;;;;31.55;28.88;;;;;;;;;;5013695;28;20189;-77
2021/01/16 07:10:06;;;;;;;32.33;29.42;;;;;;;;;;5014376;28;20189;-78
2021/01/16 07:12:33;;;;;;;31.33;28.73;;;;;;;;;;5013591;28;20190;-78
2021/01/16 07:15:00;;;;;;;33.38;29.98;;;;;;;;;;5013551;28;20229;-78
2021/01/16 07:17:28;;;;;;;32.42;29.50;;;;;;;;;;5013551;28;20228;-78
2021/01/16 07:19:57;;;;;;;33.70;30.90;;;;;;;;;;5013915;28;20189;-78
2021/01/16 07:22:28;;;;;;;34.35;31.38;;;;;;;;;;5013549;28;20654;-78
2021/01/16 07:24:56;;;;;;;32.28;29.45;;;;;;;;;;5013561;28;20249;-78
2021/01/16 07:27:24;;;;;;;32.20;29.38;;;;;;;;;;5013463;28;20190;-78
2021/01/16 07:29:51;;;;;;;31.48;28.67;;;;;;;;;;5013236;28;20194;-76
2021/01/16 07:32:19;;;;;;;32.53;29.52;;;;;;;;;;5013316;28;20658;-78
2021/01/16 07:34:46;;;;;;;32.30;29.58;;;;;;;;;;5013455;28;20197;-77
2021/01/16 07:37:14;;;;;;;34.22;30.92;;;;;;;;;;4996033;28;20229;-79
2021/01/16 07:39:43;;;;;;;33.13;30.13;;;;;;;;;;5013297;28;20564;-82
2021/01/16 07:42:12;;;;;;;32.22;29.33;;;;;;;;;;5013766;28;20191;-76
2021/01/16 07:44:41;;;;;;;31.38;28.58;;;;;;;;;;5022898;28;20189;-77
2021/01/16 07:47:17;;;;;;;32.35;29.52;;;;;;;;;;5023682;28;20189;-77
2021/01/16 07:49:52;;;;;;;35.10;31.95;;;;;;;;;;5023068;28;20209;-76
2021/01/16 07:52:23;;;;;;;35.33;32.13;;;;;;;;;;5027973;28;20639;-76
2021/01/16 07:54:53;;;;;;;32.60;30.00;;;;;;;;;;5036185;28;20201;-77
2021/01/16 07:57:22;;;;;;;34.03;31.02;;;;;;;;;;5036699;28;20564;-79
2021/01/16 07:59:53;;;;;;;33.45;30.63;;;;;;;;;;5036788;28;20189;-78
2021/01/16 08:02:29;;;;;;;32.70;29.90;;;;;;;;;;5036427;28;20258;-76
2021/01/16 08:05:09;;;;;;;35.25;32.00;;;;;;;;;;5036529;28;20196;-75
2021/01/16 08:07:51;;;;;;;35.13;31.92;;;;;;;;;;5036750;28;20544;-76
2021/01/16 08:10:19;;;;;;;33.55;30.75;;;;;;;;;;5036462;28;20193;-76
2021/01/16 08:12:48;;;;;;;33.22;30.27;;;;;;;;;;5035953;28;20201;-76
2021/01/16 08:15:17;;;;;;;33.78;30.67;;;;;;;;;;5036262;28;20236;-76
2021/01/16 08:17:45;;;;;;;34.45;31.75;;;;;;;;;;5036816;28;20216;-75
2021/01/16 08:20:27;;;;;;;33.83;30.98;;;;;;;;;;5037315;28;20581;-76
2021/01/16 08:22:56;;;;;;;33.13;30.08;;;;;;;;;;5036397;28;20259;-75
2021/01/16 08:25:24;;;;;;;35.92;32.63;;;;;;;;;;5036117;28;20189;-76
2021/01/16 08:27:52;;;;;;;33.40;30.33;;;;;;;;;;5036340;28;20200;-76
2021/01/16 08:30:19;;;;;;;33.67;30.83;;;;;;;;;;5036337;28;20185;-77
2021/01/16 08:32:53;;;;;;;34.17;30.73;;;;;;;;;;5036314;28;20242;-76
2021/01/16 08:35:26;;;;;;;33.40;30.33;;;;;;;;;;5036260;28;20347;-76
2021/01/16 08:37:53;;;;;;;34.08;30.90;;;;;;;;;;5036101;28;20230;-76
2021/01/16 08:40:32;;;;;;;33.45;30.25;;;;;;;;;;5036212;28;20196;-75
2021/01/16 08:42:59;;;;;;;34.03;30.70;;;;;;;;;;5035585;28;20630;-76
2021/01/16 08:45:26;;;;;;;34.33;31.38;;;;;;;;;;5035757;28;20200;-75
2021/01/16 08:47:53;;;;;;;36.33;33.00;;;;;;;;;;5036098;28;20566;-78
2021/01/16 08:50:21;;;;;;;33.35;30.35;;;;;;;;;;5035683;28;20189;-78
2021/01/16 08:52:49;;;;;;;36.45;33.08;;;;;;;;;;5017961;28;20201;-77
2021/01/16 08:55:17;;;;;;;34.65;31.33;;;;;;;;;;5035961;28;20200;-77
2021/01/16 08:57:44;;;;;;;34.80;31.65;;;;;;;;;;5018148;28;20236;-78
2021/01/16 09:00:15;;;;;;;33.78;30.67;;;;;;;;;;5018080;28;20205;-78
2021/01/16 09:02:42;;;;;;;36.15;32.78;;;;;;;;;;5035684;28;20185;-78
2021/01/16 09:05:24;;;;;;;35.08;31.77;;;;;;;;;;5034699;28;20639;-77
2021/01/16 09:07:53;;;;;;;33.88;31.00;;;;;;;;;;5035603;28;20191;-78
2021/01/16 09:10:24;;;;;;;35.47;32.28;;;;;;;;;;5035621;28;20193;-78
2021/01/16 09:12:51;;;;;;;37.03;33.53;;;;;;;;;;5035037;28;20712;-77
2021/01/16 09:15:19;;;;;;;34.17;31.15;;;;;;;;;;5035138;28;20234;-77
2021/01/16 09:18:07;;;;;;;36.25;32.95;;;;;;;;;;5035396;28;20223;-78
2021/01/16 09:20:34;;;;;;;37.38;34.10;;;;;;;;;;5033621;28;20200;-77
2021/01/16 09:23:16;;;;;;;35.60;32.40;;;;;;;;;;5035059;28;20288;-78
2021/01/16 09:25:44;;;;;;;36.10;33.00;;;;;;;;;;5032686;28;20201;-77
2021/01/16 09:28:11;;;;;;;35.67;32.53;;;;;;;;;;5035288;28;20192;-83
2021/01/16 09:30:38;;;;;;;36.20;33.13;;;;;;;;;;5035300;28;20190;-78
2021/01/16 09:33:20;;;;;;;34.97;31.92;;;;;;;;;;5017275;28;20674;-78
2021/01/16 09:35:47;;;;;;;36.13;32.97;;;;;;;;;;5017423;28;20200;-78
2021/01/16 09:38:17;;;;;;;35.63;32.55;;;;;;;;;;5035021;28;20217;-78
2021/01/16 09:40:45;;;;;;;37.17;33.60;;;;;;;;;;5034560;28;20205;-78
2021/01/16 09:43:16;;;;;;;37.13;33.78;;;;;;;;;;5034966;28;20285;-78
2021/01/16 09:45:53;;;;;;;38.50;34.97;;;;;;;;;;5034668;28;20658;-83
2021/01/16 09:48:41;;;;;;;38.88;35.47;;;;;;;;;;5034609;28;20201;-77
2021/01/16 09:51:08;;;;;;;37.90;34.40;;;;;;;;;;5034796;28;20189;-77
2021/01/16 09:53:35;;;;;;;36.20;33.03;;;;;;;;;;5034369;28;20220;-77
2021/01/16 09:56:04;;;;;;;36.05;32.95;;;;;;;;;;5034597;28;20716;-77
2021/01/16 09:58:31;;;;;;;36.58;33.03;;;;;;;;;;5033865;28;20732;-77
2021/01/16 10:01:14;;;;;;;38.20;34.50;;;;;;;;;;5034082;28;20712;-77
2021/01/16 10:03:41;;;;;;;36.35;33.10;;;;;;;;;;5034910;28;20208;-77
2021/01/16 10:06:08;;;;;;;37.53;33.95;;;;;;;;;;5034520;28;20212;-77
2021/01/16 10:08:35;;;;;;;34.97;31.88;;;;;;;;;;5034239;28;20234;-78
2021/01/16 10:11:03;;;;;;;35.97;32.78;;;;;;;;;;5034158;28;20284;-78
2021/01/16 10:13:31;;;;;;;36.35;33.15;;;;;;;;;;5034198;28;20185;-77
2021/01/16 10:15:58;;;;;;;36.90;33.70;;;;;;;;;;5033855;28;20236;-79
2021/01/16 10:18:27;;;;;;;39.25;35.63;;;;;;;;;;5034239;28;20224;-78
2021/01/16 10:21:01;;;;;;;46.40;41.60;;;;;;;;;;5034304;28;20192;-79
2021/01/16 10:23:28;;;;;;;48.95;43.85;;;;;;;;;;5016554;28;20271;-79
2021/01/16 10:26:00;;;;;;;38.92;35.35;;;;;;;;;;5034290;28;20193;-78
2021/01/16 10:28:28;;;;;;;46.08;41.63;;;;;;;;;;5016525;28;20204;-78
2021/01/16 10:30:59;;;;;;;66.65;59.30;;;;;;;;;;5033790;28;20239;-79
2021/01/16 10:33:28;;;;;;;115.78;73.65;;;;;;;;;;5032138;28;20639;-78
2021/01/16 10:36:04;;;;;;;103.20;63.47;;;;;;;;;;5033573;28;20663;-78
2021/01/16 10:38:39;;;;;;;234.23;103.65;;;;;;;;;;5033917;28;20217;-78
2021/01/16 10:41:07;;;;;;;58.28;46.28;;;;;;;;;;5033919;28;20196;-78
2021/01/16 10:43:35;;;;;;;37.60;34.08;;;;;;;;;;5033866;28;20661;-77
2021/01/16 10:46:07;;;;;;;37.67;34.17;;;;;;;;;;5033646;28;20193;-78
2021/01/16 10:48:38;;;;;;;38.53;34.70;;;;;;;;;;5032903;28;20207;-78
2021/01/16 10:51:06;;;;;;;41.70;37.47;;;;;;;;;;5033851;28;20193;-78
2021/01/16 10:53:35;;;;;;;38.88;35.38;;;;;;;;;;5033437;28;20252;-78
2021/01/16 10:56:07;;;;;;;39.10;35.53;;;;;;;;;;5033473;28;20229;-78
2021/01/16 10:58:35;;;;;;;37.97;34.47;;;;;;;;;;5033986;28;20278;-78
2021/01/16 11:01:02;;;;;;;37.17;33.85;;;;;;;;;;5033661;28;20208;-77
2021/01/16 11:03:31;;;;;;;39.63;35.47;;;;;;;;;;5032888;28;20186;-78
2021/01/16 11:05:58;;;;;;;37.13;33.42;;;;;;;;;;5033890;28;20193;-78
2021/01/16 11:08:29;;;;;;;36.38;33.05;;;;;;;;;;5033339;28;20192;-78
2021/01/16 11:10:56;;;;;;;37.47;33.95;;;;;;;;;;5033671;28;20186;-78
2021/01/16 11:13:24;;;;;;;38.67;34.70;;;;;;;;;;5016016;28;20213;-78
2021/01/16 11:15:55;;;;;;;44.15;39.85;;;;;;;;;;5030918;28;20240;-78
2021/01/16 11:18:34;;;;;;;39.42;35.60;;;;;;;;;;5031129;28;20222;-78
2021/01/16 11:21:02;;;;;;;37.45;34.05;;;;;;;;;;5033383;28;20725;-78
2021/01/16 11:23:35;;;;;;;36.05;32.90;;;;;;;;;;5030860;28;20216;-78
2021/01/16 11:26:07;;;;;;;35.88;32.67;;;;;;;;;;5033327;28;20212;-78
2021/01/16 11:28:47;;;;;;;156.80;83.07;;;;;;;;;;5032996;28;20225;-78
2021/01/16 11:31:24;;;;;;;40.83;36.38;;;;;;;;;;5017514;28;20204;-77
2021/01/16 11:34:03;;;;;;;44.40;37.72;;;;;;;;;;5037724;28;20207;-78
2021/01/16 11:36:30;;;;;;;47.45;39.80;;;;;;;;;;5037127;28;20192;-78
2021/01/16 11:38:57;;;;;;;39.65;35.88;;;;;;;;;;5019530;28;20279;-78
2021/01/16 11:41:43;;;;;;;42.42;38.13;;;;;;;;;;5037042;28;20537;-77
2021/01/16 11:44:09;;;;;;;38.67;34.78;;;;;;;;;;5036662;28;20189;-77
2021/01/16 11:46:36;;;;;;;38.92;35.42;;;;;;;;;;5036850;28;20610;-77
2021/01/16 11:49:04;;;;;;;40.00;36.28;;;;;;;;;;5019436;28;20209;-78
2021/01/16 11:51:33;;;;;;;37.92;34.63;;;;;;;;;;5037158;28;20198;-78
2021/01/16 11:54:00;;;;;;;38.33;34.72;;;;;;;;;;5038519;28;20636;-78
2021/01/16 11:56:27;;;;;;;37.58;34.17;;;;;;;;;;5038036;28;20572;-78
2021/01/16 11:58:54;;;;;;;37.85;34.17;;;;;;;;;;5036445;28;20307;-78
2021/01/16 12:01:21;;;;;;;41.35;37.30;;;;;;;;;;5036444;28;20208;-77
2021/01/16 12:03:49;;;;;;;44.65;40.25;;;;;;;;;;5036773;28;20205;-78
2021/01/16 12:06:17;;;;;;;37.28;33.95;;;;;;;;;;5036824;28;20217;-77
2021/01/16 12:08:45;;;;;;;39.25;35.50;;;;;;;;;;5036802;28;20188;-77
2021/01/16 12:11:13;;;;;;;36.17;33.05;;;;;;;;;;5036752;28;20189;-77
2021/01/16 12:13:43;;;;;;;37.45;34.20;;;;;;;;;;5036141;28;20186;-77
2021/01/16 12:16:12;;;;;;;38.20;34.50;;;;;;;;;;5036137;28;20233;-82
2021/01/16 12:18:39;;;;;;;38.42;34.97;;;;;;;;;;5018671;28;20702;-78
2021/01/16 12:21:09;;;;;;;38.92;35.33;;;;;;;;;;5036944;28;20189;-88
2021/01/16 12:23:41;;;;;;;36.80;33.22;;;;;;;;;;5036502;28;20200;-77
2021/01/16 12:26:10;;;;;;;37.45;34.05;;;;;;;;;;5036179;28;20643;-77
2021/01/16 12:28:38;;;;;;;38.50;35.00;;;;;;;;;;5036131;28;20200;-77
2021/01/16 12:31:06;;;;;;;35.13;32.10;;;;;;;;;;5035985;28;20187;-77
2021/01/16 12:33:33;;;;;;;37.70;34.08;;;;;;;;;;5035965;28;20197;-78
2021/01/16 12:36:06;;;;;;;37.10;33.58;;;;;;;;;;5036400;28;20553;-79
2021/01/16 12:38:32;;;;;;;36.50;33.28;;;;;;;;;;5035807;28;20216;-79
2021/01/16 12:41:00;;;;;;;39.75;36.00;;;;;;;;;;5036241;28;20190;-78
2021/01/16 12:43:27;;;;;;;36.15;33.00;;;;;;;;;;5035627;28;20647;-77
2021/01/16 12:45:54;;;;;;;37.22;33.60;;;;;;;;;;5035725;28;20647;-77
2021/01/16 12:48:21;;;;;;;36.63;33.13;;;;;;;;;;5035716;28;20569;-77
2021/01/16 12:50:49;;;;;;;35.80;32.45;;;;;;;;;;5036019;28;20193;-77
2021/01/16 12:53:16;;;;;;;36.20;33.03;;;;;;;;;;5035620;28;20190;-77
2021/01/16 12:55:42;;;;;;;35.80;32.90;;;;;;;;;;5035809;28;20619;-77
2021/01/16 12:58:10;;;;;;;38.22;34.80;;;;;;;;;;5035498;28;20691;-77
2021/01/16 13:00:39;;;;;;;36.50;33.30;;;;;;;;;;5035645;28;20189;-77
2021/01/16 13:03:06;;;;;;;34.50;31.60;;;;;;;;;;5035913;28;20624;-77
2021/01/16 13:05:34;;;;;;;35.47;32.35;;;;;;;;;;5035696;28;20204;-77
2021/01/16 13:08:01;;;;;;;37.20;33.53;;;;;;;;;;5035659;28;20212;-77
2021/01/16 13:10:29;;;;;;;36.13;32.70;;;;;;;;;;5035623;28;20189;-77
2021/01/16 13:12:57;;;;;;;35.38;32.28;;;;;;;;;;5035144;28;20193;-77
2021/01/16 13:15:39;;;;;;;35.20;31.85;;;;;;;;;;5035093;28;20233;-79
2021/01/16 13:18:14;;;;;;;34.83;31.42;;;;;;;;;;5034346;28;20630;-78
2021/01/16 13:20:47;;;;;;;35.50;32.55;;;;;;;;;;5015194;28;20197;-79
2021/01/16 13:23:14;;;;;;;34.20;31.02;;;;;;;;;;5014879;28;20673;-78
2021/01/16 13:25:44;;;;;;;35.33;32.00;;;;;;;;;;5015620;28;20191;-79
2021/01/16 13:28:10;;;;;;;37.85;34.55;;;;;;;;;;5015173;28;20213;-78
2021/01/16 13:30:38;;;;;;;39.47;35.85;;;;;;;;;;5023576;28;20200;-79
2021/01/16 13:33:05;;;;;;;36.50;33.30;;;;;;;;;;5035109;28;20187;-78
2021/01/16 13:35:33;;;;;;;34.35;31.48;;;;;;;;;;5034959;28;20260;-78
2021/01/16 13:38:01;;;;;;;35.38;32.38;;;;;;;;;;5017130;28;20272;-78
2021/01/16 13:40:28;;;;;;;34.13;31.15;;;;;;;;;;5034748;28;20189;-78
2021/01/16 13:43:04;;;;;;;34.60;31.50;;;;;;;;;;5034503;28;20196;-78
2021/01/16 13:45:31;;;;;;;35.72;32.63;;;;;;;;;;5034622;28;20527;-79
2021/01/16 13:48:00;;;;;;;33.97;31.05;;;;;;;;;;5035049;28;20197;-78
2021/01/16 13:50:27;;;;;;;34.53;31.30;;;;;;;;;;5035167;28;20197;-79
2021/01/16 13:52:55;;;;;;;33.85;30.85;;;;;;;;;;5034605;28;20223;-86
2021/01/16 13:55:23;;;;;;;35.47;31.83;;;;;;;;;;5034770;28;20282;-79
2021/01/16 13:58:03;;;;;;;34.10;31.10;;;;;;;;;;5035400;28;20217;-78
2021/01/16 14:00:30;;;;;;;34.28;31.48;;;;;;;;;;5034241;28;20197;-77
2021/01/16 14:02:58;;;;;;;33.05;30.35;;;;;;;;;;5034589;28;20200;-78
2021/01/16 14:05:25;;;;;;;35.70;32.30;;;;;;;;;;5034247;28;20197;-76
2021/01/16 14:07:52;;;;;;;34.47;31.35;;;;;;;;;;5034600;28;20190;-79
2021/01/16 14:10:27;;;;;;;34.78;31.75;;;;;;;;;;5026823;28;20198;-79
2021/01/16 14:13:07;;;;;;;35.33;32.17;;;;;;;;;;5012674;28;20275;-79
2021/01/16 14:15:34;;;;;;;34.95;31.92;;;;;;;;;;5014279;28;20245;-79
2021/01/16 14:18:01;;;;;;;34.60;31.50;;;;;;;;;;5014193;28;20222;-77
2021/01/16 14:20:32;;;;;;;36.53;32.53;;;;;;;;;;5014230;28;20633;-78
2021/01/16 14:22:59;;;;;;;34.72;31.77;;;;;;;;;;5014274;28;20199;-78
2021/01/16 14:25:28;;;;;;;35.22;32.10;;;;;;;;;;5014299;28;20201;-79
2021/01/16 14:27:55;;;;;;;36.97;33.60;;;;;;;;;;5014141;28;20212;-78